createdAt,value
2023-05-14T00:00:05.981Z,94379.00
2023-05-14T00:01:05.995Z,94377.00
2023-05-14T00:02:06.081Z,94375.00
2023-05-14T00:03:06.247Z,94377.00
2023-05-14T00:04:06.151Z,94375.00
2023-05-14T00:05:06.122Z,94375.00
2023-05-14T00:06:06.144Z,94375.00
2023-05-14T00:07:06.168Z,94375.00
2023-05-14T00:08:06.211Z,94375.00
2023-05-14T00:09:06.261Z,94375.00
2023-05-14T00:10:06.242Z,94375.00
2023-05-14T00:11:06.267Z,94377.00
2023-05-14T00:12:06.283Z,94377.00
2023-05-14T00:13:06.305Z,94377.00
2023-05-14T00:14:06.354Z,94375.00
2023-05-14T00:15:06.384Z,94377.00
2023-05-14T00:16:06.452Z,94375.00
2023-05-14T00:17:06.418Z,94366.00
2023-05-14T00:18:06.470Z,94368.00
2023-05-14T00:19:06.590Z,94366.00
2023-05-14T00:20:06.511Z,94375.00
2023-05-14T00:21:06.523Z,94368.00
2023-05-14T00:22:06.570Z,94364.00
2023-05-14T00:23:06.614Z,94366.00
2023-05-14T00:24:06.656Z,94364.00
2023-05-14T00:25:06.637Z,94364.00
2023-05-14T00:26:06.664Z,94362.00
2023-05-14T00:27:06.706Z,94362.00
2023-05-14T00:28:06.743Z,94362.00
2023-05-14T00:29:06.772Z,94360.00
2023-05-14T00:30:06.838Z,94358.00
2023-05-14T00:31:06.840Z,94358.00
2023-05-14T00:32:06.855Z,94356.00
2023-05-14T00:33:06.941Z,94356.00
2023-05-14T00:34:06.887Z,94356.00
2023-05-14T00:35:06.914Z,94356.00
2023-05-14T00:36:06.960Z,94356.00
2023-05-14T00:37:06.988Z,94352.00
2023-05-14T00:38:07.008Z,94352.00
2023-05-14T00:39:07.043Z,94354.00
2023-05-14T00:40:07.072Z,94354.00
2023-05-14T00:41:07.106Z,94354.00
2023-05-14T00:42:07.126Z,94350.00
2023-05-14T00:43:07.145Z,94350.00
2023-05-14T00:44:07.171Z,94350.00
2023-05-14T00:45:07.189Z,94350.00
2023-05-14T00:46:07.251Z,94350.00
2023-05-14T00:47:07.341Z,94352.00
2023-05-14T00:48:07.340Z,94352.00
2023-05-14T00:49:07.301Z,94352.00
2023-05-14T00:50:07.349Z,94350.00
2023-05-14T00:51:07.376Z,94350.00
2023-05-14T00:52:07.405Z,94348.00
2023-05-14T00:53:07.425Z,94350.00
2023-05-14T00:54:07.451Z,94350.00
2023-05-14T00:55:07.533Z,94350.00
2023-05-14T00:56:07.515Z,94350.00
2023-05-14T00:57:07.545Z,94352.00
2023-05-14T00:58:07.598Z,94352.00
2023-05-14T00:59:07.616Z,94348.00
2023-05-14T01:00:07.636Z,94350.00
2023-05-14T01:01:07.724Z,94348.00
2023-05-14T01:02:07.698Z,94346.00
2023-05-14T01:03:07.934Z,94354.00
2023-05-14T01:04:07.876Z,94348.00
2023-05-14T01:05:07.789Z,94348.00
2023-05-14T01:06:07.829Z,94350.00
2023-05-14T01:07:07.837Z,94350.00
2023-05-14T01:08:07.873Z,94350.00
2023-05-14T01:09:07.920Z,94352.00
2023-05-14T01:10:07.950Z,94350.00
2023-05-14T01:11:07.973Z,94350.00
2023-05-14T01:12:08.029Z,94350.00
2023-05-14T01:13:08.045Z,94348.00
2023-05-14T01:14:08.096Z,94348.00
2023-05-14T01:15:08.108Z,94346.00
2023-05-14T01:16:08.152Z,94342.00
2023-05-14T01:17:08.174Z,94344.00
2023-05-14T01:18:08.268Z,94342.00
2023-05-14T01:19:08.333Z,94342.00
2023-05-14T01:20:08.288Z,94342.00
2023-05-14T01:21:08.325Z,94342.00
2023-05-14T01:22:08.372Z,94342.00
2023-05-14T01:23:08.398Z,94340.00
2023-05-14T01:24:08.445Z,94342.00
2023-05-14T01:25:08.474Z,94340.00
2023-05-14T01:26:08.483Z,94342.00
2023-05-14T01:27:08.526Z,94342.00
2023-05-14T01:28:08.550Z,94342.00
2023-05-14T01:29:08.606Z,94344.00
2023-05-14T01:30:08.635Z,94344.00
2023-05-14T01:31:08.669Z,94344.00
2023-05-14T01:32:08.758Z,94342.00
2023-05-14T01:33:08.731Z,94340.00
2023-05-14T01:34:08.766Z,94340.00
2023-05-14T01:35:08.804Z,94340.00
2023-05-14T01:36:08.812Z,94342.00
2023-05-14T01:37:08.843Z,94342.00
2023-05-14T01:38:08.895Z,94338.00
2023-05-14T01:39:08.919Z,94340.00
2023-05-14T01:40:08.960Z,94336.00
2023-05-14T01:41:08.984Z,94338.00
2023-05-14T01:42:09.014Z,94336.00
2023-05-14T01:43:09.128Z,94336.00
2023-05-14T01:44:09.068Z,94340.00
2023-05-14T01:45:09.126Z,94338.00
2023-05-14T01:46:09.197Z,94338.00
2023-05-14T01:47:09.171Z,94338.00
2023-05-14T01:48:09.280Z,94336.00
2023-05-14T01:49:09.233Z,94340.00
2023-05-14T01:50:09.287Z,94338.00
2023-05-14T01:51:09.302Z,94338.00
2023-05-14T01:52:09.338Z,94338.00
2023-05-14T01:53:09.391Z,94336.00
2023-05-14T01:54:09.424Z,94336.00
2023-05-14T01:55:09.443Z,94338.00
2023-05-14T01:56:09.473Z,94336.00
2023-05-14T01:57:09.501Z,94336.00
2023-05-14T01:58:09.556Z,94336.00
2023-05-14T01:59:09.578Z,94336.00
2023-05-14T02:00:09.610Z,94336.00
2023-05-14T02:01:09.692Z,94338.00
2023-05-14T02:02:09.686Z,94338.00
2023-05-14T02:03:09.740Z,94338.00
2023-05-14T02:04:09.888Z,94336.00
2023-05-14T02:05:09.824Z,94336.00
2023-05-14T02:06:09.830Z,94336.00
2023-05-14T02:07:09.843Z,94336.00
2023-05-14T02:08:09.901Z,94336.00
2023-05-14T02:09:09.924Z,94334.00
2023-05-14T02:10:09.973Z,94334.00
2023-05-14T02:11:09.982Z,94332.00
2023-05-14T02:12:10.016Z,94330.00
2023-05-14T02:13:10.049Z,94328.00
2023-05-14T02:14:10.073Z,94328.00
2023-05-14T02:15:10.141Z,94328.00
2023-05-14T02:16:10.200Z,94328.00
2023-05-14T02:17:10.209Z,94326.00
2023-05-14T02:18:10.273Z,94328.00
2023-05-14T02:19:10.369Z,94326.00
2023-05-14T02:20:10.362Z,94328.00
2023-05-14T02:21:10.330Z,94326.00
2023-05-14T02:22:10.346Z,94328.00
2023-05-14T02:23:10.399Z,94326.00
2023-05-14T02:24:10.407Z,94326.00
2023-05-14T02:25:10.453Z,94324.00
2023-05-14T02:26:10.521Z,94326.00
2023-05-14T02:27:10.523Z,94326.00
2023-05-14T02:28:10.575Z,94326.00
2023-05-14T02:29:10.598Z,94324.00
2023-05-14T02:30:10.617Z,94322.00
2023-05-14T02:31:10.731Z,94321.00
2023-05-14T02:32:10.717Z,94321.00
2023-05-14T02:33:10.823Z,94321.00
2023-05-14T02:34:10.768Z,94319.00
2023-05-14T02:35:10.804Z,94321.00
2023-05-14T02:36:10.832Z,94321.00
2023-05-14T02:37:10.855Z,94321.00
2023-05-14T02:38:10.887Z,94319.00
2023-05-14T02:39:10.936Z,94321.00
2023-05-14T02:40:10.936Z,94321.00
2023-05-14T02:41:10.989Z,94319.00
2023-05-14T02:42:10.999Z,94317.00
2023-05-14T02:43:11.038Z,94319.00
2023-05-14T02:44:11.057Z,94315.00
2023-05-14T02:45:11.096Z,94317.00
2023-05-14T02:46:11.140Z,94315.00
2023-05-14T02:47:11.267Z,94309.00
2023-05-14T02:48:11.247Z,94311.00
2023-05-14T02:49:11.302Z,94309.00
2023-05-14T02:50:11.271Z,94305.00
2023-05-14T02:51:11.301Z,94307.00
2023-05-14T02:52:11.327Z,94305.00
2023-05-14T02:53:11.346Z,94305.00
2023-05-14T02:54:11.378Z,94303.00
2023-05-14T02:55:11.404Z,94301.00
2023-05-14T02:56:11.440Z,94299.00
2023-05-14T02:57:11.475Z,94301.00
2023-05-14T02:58:11.507Z,94299.00
2023-05-14T02:59:11.544Z,94299.00
2023-05-14T03:00:11.570Z,94299.00
2023-05-14T03:01:11.664Z,94297.00
2023-05-14T03:02:11.676Z,94299.00
2023-05-14T03:03:11.709Z,94297.00
2023-05-14T03:04:11.704Z,94299.00
2023-05-14T03:05:11.728Z,94299.00
2023-05-14T03:06:11.768Z,94297.00
2023-05-14T03:07:11.774Z,94301.00
2023-05-14T03:08:11.876Z,94299.00
2023-05-14T03:09:11.837Z,94301.00
2023-05-14T03:10:11.888Z,94299.00
2023-05-14T03:11:11.918Z,94301.00
2023-05-14T03:12:11.932Z,94301.00
2023-05-14T03:13:11.957Z,94301.00
2023-05-14T03:14:12.009Z,94303.00
2023-05-14T03:15:12.016Z,94303.00
2023-05-14T03:16:12.108Z,94301.00
2023-05-14T03:17:12.135Z,94301.00
2023-05-14T03:18:12.137Z,94301.00
2023-05-14T03:19:12.345Z,94301.00
2023-05-14T03:20:12.179Z,94299.00
2023-05-14T03:21:12.210Z,94299.00
2023-05-14T03:22:12.238Z,94297.00
2023-05-14T03:23:12.265Z,94299.00
2023-05-14T03:24:12.302Z,94297.00
2023-05-14T03:25:12.330Z,94297.00
2023-05-14T03:26:12.356Z,94295.00
2023-05-14T03:27:12.379Z,94293.00
2023-05-14T03:28:12.409Z,94295.00
2023-05-14T03:29:12.453Z,94291.00
2023-05-14T03:30:12.494Z,94295.00
2023-05-14T03:31:12.562Z,94291.00
2023-05-14T03:32:12.538Z,94295.00
2023-05-14T03:33:12.639Z,94289.00
2023-05-14T03:34:12.596Z,94291.00
2023-05-14T03:35:12.639Z,94289.00
2023-05-14T03:36:12.663Z,94287.00
2023-05-14T03:37:12.691Z,94287.00
2023-05-14T03:38:12.731Z,94287.00
2023-05-14T03:39:12.766Z,94287.00
2023-05-14T03:40:12.779Z,94287.00
2023-05-14T03:41:12.838Z,94287.00
2023-05-14T03:42:12.860Z,94287.00
2023-05-14T03:43:12.893Z,94289.00
2023-05-14T03:44:12.916Z,94287.00
2023-05-14T03:45:12.945Z,94287.00
2023-05-14T03:46:12.976Z,94287.00
2023-05-14T03:47:13.016Z,94287.00
2023-05-14T03:48:13.128Z,94287.00
2023-05-14T03:49:13.049Z,94287.00
2023-05-14T03:50:13.087Z,94289.00
2023-05-14T03:51:13.112Z,94287.00
2023-05-14T03:52:13.162Z,94287.00
2023-05-14T03:53:13.175Z,94289.00
2023-05-14T03:54:13.202Z,94289.00
2023-05-14T03:55:13.231Z,94291.00
2023-05-14T03:56:13.270Z,94291.00
2023-05-14T03:57:13.313Z,94293.00
2023-05-14T03:58:13.319Z,94291.00
2023-05-14T03:59:13.361Z,94297.00
2023-05-14T04:00:13.385Z,94297.00
2023-05-14T04:01:13.437Z,94297.00
2023-05-14T04:02:13.585Z,94299.00
2023-05-14T04:03:13.575Z,94299.00
2023-05-14T04:04:13.571Z,94297.00
2023-05-14T04:05:13.546Z,94297.00
2023-05-14T04:06:13.579Z,94297.00
2023-05-14T04:07:13.590Z,94297.00
2023-05-14T04:08:13.622Z,94295.00
2023-05-14T04:09:13.644Z,94297.00
2023-05-14T04:10:13.689Z,94295.00
2023-05-14T04:11:13.725Z,94295.00
2023-05-14T04:12:13.753Z,94297.00
2023-05-14T04:13:13.766Z,94299.00
2023-05-14T04:14:13.797Z,94299.00
2023-05-14T04:15:13.847Z,94297.00
2023-05-14T04:16:13.913Z,94297.00
2023-05-14T04:17:13.958Z,94295.00
2023-05-14T04:18:14.075Z,94295.00
2023-05-14T04:19:14.022Z,94293.00
2023-05-14T04:20:13.981Z,94293.00
2023-05-14T04:21:14.024Z,94293.00
2023-05-14T04:22:14.039Z,94289.00
2023-05-14T04:23:14.079Z,94287.00
2023-05-14T04:24:14.104Z,94287.00
2023-05-14T04:25:14.176Z,94287.00
2023-05-14T04:26:14.170Z,94287.00
2023-05-14T04:27:14.203Z,94287.00
2023-05-14T04:28:14.252Z,94287.00
2023-05-14T04:29:14.254Z,94285.00
2023-05-14T04:30:14.298Z,94287.00
2023-05-14T04:31:14.335Z,94285.00
2023-05-14T04:32:14.337Z,94285.00
2023-05-14T04:33:14.370Z,94285.00
2023-05-14T04:34:14.414Z,94285.00
2023-05-14T04:35:14.444Z,94285.00
2023-05-14T04:36:14.473Z,94285.00
2023-05-14T04:37:14.528Z,94283.00
2023-05-14T04:38:14.556Z,94283.00
2023-05-14T04:39:14.592Z,94283.00
2023-05-14T04:40:14.598Z,94287.00
2023-05-14T04:41:14.669Z,94287.00
2023-05-14T04:42:14.655Z,94287.00
2023-05-14T04:43:14.736Z,94289.00
2023-05-14T04:44:14.719Z,94289.00
2023-05-14T04:45:14.852Z,94291.00
2023-05-14T04:46:14.828Z,94289.00
2023-05-14T04:47:14.823Z,94289.00
2023-05-14T04:48:14.833Z,94291.00
2023-05-14T04:49:14.876Z,94289.00
2023-05-14T04:50:14.898Z,94289.00
2023-05-14T04:51:14.930Z,94291.00
2023-05-14T04:52:14.957Z,94293.00
2023-05-14T04:53:14.982Z,94293.00
2023-05-14T04:54:15.043Z,94293.00
2023-05-14T04:55:15.058Z,94293.00
2023-05-14T04:56:15.093Z,94293.00
2023-05-14T04:57:15.133Z,94293.00
2023-05-14T04:58:15.134Z,94293.00
2023-05-14T04:59:15.183Z,94293.00
2023-05-14T05:00:15.216Z,94295.00
2023-05-14T05:01:15.369Z,94295.00
2023-05-14T05:02:15.271Z,94291.00
2023-05-14T05:03:15.390Z,94293.00
2023-05-14T05:04:15.525Z,94293.00
2023-05-14T05:05:15.378Z,94289.00
2023-05-14T05:06:15.410Z,94289.00
2023-05-14T05:07:15.425Z,94289.00
2023-05-14T05:08:15.456Z,94289.00
2023-05-14T05:09:15.482Z,94287.00
2023-05-14T05:10:15.525Z,94287.00
2023-05-14T05:11:15.566Z,94285.00
2023-05-14T05:12:15.589Z,94285.00
2023-05-14T05:13:15.597Z,94289.00
2023-05-14T05:14:15.643Z,94285.00
2023-05-14T05:15:15.676Z,94287.00
2023-05-14T05:16:15.816Z,94283.00
2023-05-14T05:17:15.740Z,94285.00
2023-05-14T05:18:15.766Z,94285.00
2023-05-14T05:19:15.900Z,94287.00
2023-05-14T05:20:15.846Z,94287.00
2023-05-14T05:21:15.870Z,94287.00
2023-05-14T05:22:15.882Z,94287.00
2023-05-14T05:23:15.924Z,94289.00
2023-05-14T05:24:15.947Z,94287.00
2023-05-14T05:25:16.017Z,94287.00
2023-05-14T05:26:16.011Z,94289.00
2023-05-14T05:27:16.054Z,94287.00
2023-05-14T05:28:16.067Z,94289.00
2023-05-14T05:29:16.110Z,94291.00
2023-05-14T05:30:16.168Z,94293.00
2023-05-14T05:31:17.636Z,94293.00
2023-05-14T05:32:16.167Z,94295.00
2023-05-14T05:33:16.182Z,94297.00
2023-05-14T05:34:16.156Z,94295.00
2023-05-14T05:35:16.168Z,94299.00
2023-05-14T05:36:16.131Z,94299.00
2023-05-14T05:37:16.131Z,94299.00
2023-05-14T05:38:16.124Z,94299.00
2023-05-14T05:39:16.122Z,94299.00
2023-05-14T05:40:16.103Z,94299.00
2023-05-14T05:41:16.095Z,94299.00
2023-05-14T05:42:16.096Z,94299.00
2023-05-14T05:43:16.086Z,94301.00
2023-05-14T05:44:16.078Z,94299.00
2023-05-14T05:45:16.059Z,94299.00
2023-05-14T05:46:16.068Z,94301.00
2023-05-14T05:47:16.056Z,94301.00
2023-05-14T05:48:16.044Z,94299.00
2023-05-14T05:49:16.031Z,94299.00
2023-05-14T05:50:16.376Z,94303.00
2023-05-14T05:51:16.017Z,94303.00
2023-05-14T05:52:16.007Z,94305.00
2023-05-14T05:53:16.011Z,94307.00
2023-05-14T05:54:16.001Z,94303.00
2023-05-14T05:55:15.989Z,94305.00
2023-05-14T05:56:16.006Z,94303.00
2023-05-14T05:57:15.986Z,94305.00
2023-05-14T05:58:15.977Z,94299.00
2023-05-14T05:59:15.956Z,94301.00
2023-05-14T06:00:15.943Z,94301.00
2023-05-14T06:01:15.959Z,94297.00
2023-05-14T06:02:16.043Z,94299.00
2023-05-14T06:03:15.949Z,94297.00
2023-05-14T06:04:15.914Z,94297.00
2023-05-14T06:05:15.971Z,94295.00
2023-05-14T06:06:15.919Z,94293.00
2023-05-14T06:07:15.913Z,94291.00
2023-05-14T06:08:15.902Z,94289.00
2023-05-14T06:09:15.891Z,94289.00
2023-05-14T06:10:15.880Z,94287.00
2023-05-14T06:11:15.868Z,94289.00
2023-05-14T06:12:15.868Z,94287.00
2023-05-14T06:13:15.842Z,94287.00
2023-05-14T06:14:15.833Z,94283.00
2023-05-14T06:15:15.854Z,94287.00
2023-05-14T06:16:15.873Z,94285.00
2023-05-14T06:17:15.826Z,94285.00
2023-05-14T06:18:15.818Z,94285.00
2023-05-14T06:19:16.000Z,94283.00
2023-05-14T06:20:15.816Z,94283.00
2023-05-14T06:21:15.783Z,94281.00
2023-05-14T06:22:15.779Z,94281.00
2023-05-14T06:23:15.770Z,94281.00
2023-05-14T06:24:15.758Z,94281.00
2023-05-14T06:25:15.757Z,94279.00
2023-05-14T06:26:15.761Z,94283.00
2023-05-14T06:27:15.767Z,94279.00
2023-05-14T06:28:15.750Z,94279.00
2023-05-14T06:29:15.739Z,94279.00
2023-05-14T06:30:15.737Z,94281.00
2023-05-14T06:31:15.744Z,94283.00
2023-05-14T06:32:15.855Z,94279.00
2023-05-14T06:33:15.796Z,94281.00
2023-05-14T06:34:15.814Z,94279.00
2023-05-14T06:35:15.855Z,94281.00
2023-05-14T06:36:15.916Z,94277.00
2023-05-14T06:37:15.895Z,94277.00
2023-05-14T06:38:15.938Z,94275.00
2023-05-14T06:39:15.957Z,94275.00
2023-05-14T06:40:15.974Z,94274.00
2023-05-14T06:41:16.022Z,94270.00
2023-05-14T06:42:16.025Z,94270.00
2023-05-14T06:43:16.046Z,94270.00
2023-05-14T06:44:16.085Z,94270.00
2023-05-14T06:45:16.120Z,94268.00
2023-05-14T06:46:16.127Z,94274.00
2023-05-14T06:47:16.157Z,94275.00
2023-05-14T06:48:16.208Z,94270.00
2023-05-14T06:49:16.246Z,94270.00
2023-05-14T06:50:16.215Z,94266.00
2023-05-14T06:51:16.250Z,94266.00
2023-05-14T06:52:16.264Z,94262.00
2023-05-14T06:53:16.311Z,94266.00
2023-05-14T06:54:16.302Z,94266.00
2023-05-14T06:55:16.355Z,94266.00
2023-05-14T06:56:16.368Z,94268.00
2023-05-14T06:57:16.369Z,94270.00
2023-05-14T06:58:16.371Z,94270.00
2023-05-14T06:59:16.385Z,94270.00
2023-05-14T07:00:16.388Z,94272.00
2023-05-14T07:01:16.522Z,94270.00
2023-05-14T07:02:16.416Z,94270.00
2023-05-14T07:03:16.453Z,94272.00
2023-05-14T07:04:16.506Z,94268.00
2023-05-14T07:05:16.497Z,94270.00
2023-05-14T07:06:16.459Z,94266.00
2023-05-14T07:07:16.493Z,94264.00
2023-05-14T07:08:16.488Z,94262.00
2023-05-14T07:09:16.524Z,94264.00
2023-05-14T07:10:16.524Z,94264.00
2023-05-14T07:11:16.540Z,94258.00
2023-05-14T07:12:16.531Z,94260.00
2023-05-14T07:13:16.537Z,94258.00
2023-05-14T07:14:16.564Z,94254.00
2023-05-14T07:15:16.591Z,94254.00
2023-05-14T07:16:16.580Z,94250.00
2023-05-14T07:17:16.728Z,94252.00
2023-05-14T07:18:16.668Z,94246.00
2023-05-14T07:19:16.666Z,94246.00
2023-05-14T07:20:16.573Z,94242.00
2023-05-14T07:21:16.586Z,94242.00
2023-05-14T07:22:16.582Z,94242.00
2023-05-14T07:24:16.607Z,94240.00
2023-05-14T07:25:16.594Z,94240.00
2023-05-14T07:26:16.608Z,94240.00
2023-05-14T07:27:16.608Z,94240.00
2023-05-14T07:28:16.584Z,94236.00
2023-05-14T07:29:16.581Z,94238.00
2023-05-14T07:30:16.597Z,94238.00
2023-05-14T07:31:16.684Z,94238.00
2023-05-14T07:32:16.615Z,94236.00
2023-05-14T07:33:16.610Z,94238.00
2023-05-14T07:34:16.627Z,94238.00
2023-05-14T07:35:16.635Z,94236.00
2023-05-14T07:36:16.627Z,94234.00
2023-05-14T07:37:16.669Z,94236.00
2023-05-14T07:38:16.656Z,94236.00
2023-05-14T07:39:16.683Z,94234.00
2023-05-14T07:40:16.690Z,94232.00
2023-05-14T07:41:16.716Z,94236.00
2023-05-14T07:42:27.950Z,94232.00
2023-05-14T07:43:17.725Z,94230.00
2023-05-14T07:44:16.721Z,94230.00
2023-05-14T07:45:16.694Z,94230.00
2023-05-14T07:46:16.707Z,94226.00
2023-05-14T07:47:16.761Z,94228.00
2023-05-14T07:48:16.710Z,94224.00
2023-05-14T07:49:16.668Z,94224.00
2023-05-14T07:50:16.710Z,94224.00
2023-05-14T07:51:16.688Z,94220.00
2023-05-14T07:52:16.705Z,94217.00
2023-05-14T07:53:16.768Z,94219.00
2023-05-14T07:54:16.784Z,94219.00
2023-05-14T07:55:16.882Z,94215.00
2023-05-14T07:56:16.969Z,94215.00
2023-05-14T07:57:16.982Z,94215.00
2023-05-14T07:58:17.022Z,94215.00
2023-05-14T07:59:17.076Z,94211.00
2023-05-14T08:00:17.134Z,94211.00
2023-05-14T08:01:17.148Z,94209.00
2023-05-14T08:02:17.437Z,94205.00
2023-05-14T08:03:17.334Z,94201.00
2023-05-14T08:04:17.336Z,94197.00
2023-05-14T08:05:17.360Z,94199.00
2023-05-14T08:06:17.469Z,94195.00
2023-05-14T08:07:17.513Z,94193.00
2023-05-14T08:08:17.551Z,94191.00
2023-05-14T08:09:17.610Z,94187.00
2023-05-14T08:10:17.665Z,94187.00
2023-05-14T08:11:17.781Z,94185.00
2023-05-14T08:12:17.768Z,94185.00
2023-05-14T08:13:17.827Z,94181.00
2023-05-14T08:14:17.901Z,94187.00
2023-05-14T08:15:17.965Z,94183.00
2023-05-14T08:16:18.059Z,94183.00
2023-05-14T08:17:18.176Z,94181.00
2023-05-14T08:18:18.130Z,94179.00
2023-05-14T08:19:18.177Z,94179.00
2023-05-14T08:20:18.228Z,94173.00
2023-05-14T08:21:18.278Z,94173.00
2023-05-14T08:22:18.316Z,94173.00
2023-05-14T08:23:18.365Z,94173.00
2023-05-14T08:24:18.396Z,94170.00
2023-05-14T08:25:18.435Z,94173.00
2023-05-14T08:26:18.481Z,94173.00
2023-05-14T08:27:18.516Z,94170.00
2023-05-14T08:28:18.528Z,94170.00
2023-05-14T08:29:18.577Z,94166.00
2023-05-14T08:30:18.615Z,94162.00
2023-05-14T08:31:18.704Z,94162.00
2023-05-14T08:32:23.472Z,94160.00
2023-05-14T08:33:19.643Z,94158.00
2023-05-14T08:34:18.668Z,94160.00
2023-05-14T08:35:18.641Z,94158.00
2023-05-14T08:36:18.622Z,94156.00
2023-05-14T08:37:18.615Z,94158.00
2023-05-14T08:38:18.623Z,94154.00
2023-05-14T08:39:18.607Z,94154.00
2023-05-14T08:40:18.591Z,94152.00
2023-05-14T08:41:18.606Z,94148.00
2023-05-14T08:42:18.603Z,94150.00
2023-05-14T08:43:18.593Z,94146.00
2023-05-14T08:44:18.580Z,94146.00
2023-05-14T08:45:18.578Z,94142.00
2023-05-14T08:46:18.577Z,94144.00
2023-05-14T08:47:18.558Z,94144.00
2023-05-14T08:48:18.624Z,94146.00
2023-05-14T08:49:18.542Z,94144.00
2023-05-14T08:50:19.914Z,94142.00
2023-05-14T08:51:18.517Z,94142.00
2023-05-14T08:52:18.524Z,94142.00
2023-05-14T08:53:18.512Z,94140.00
2023-05-14T08:54:18.526Z,94138.00
2023-05-14T08:55:18.490Z,94136.00
2023-05-14T08:56:18.496Z,94136.00
2023-05-14T08:57:18.495Z,94136.00
2023-05-14T08:58:18.487Z,94134.00
2023-05-14T08:59:18.458Z,94134.00
2023-05-14T09:00:18.466Z,94132.00
2023-05-14T09:01:18.566Z,94130.00
2023-05-14T09:02:18.454Z,94128.00
2023-05-14T09:03:18.492Z,94126.00
2023-05-14T09:04:18.562Z,94128.00
2023-05-14T09:05:18.432Z,94124.00
2023-05-14T09:06:18.405Z,94122.00
2023-05-14T09:07:18.421Z,94122.00
2023-05-14T09:08:18.392Z,94122.00
2023-05-14T09:09:18.389Z,94122.00
2023-05-14T09:10:18.397Z,94124.00
2023-05-14T09:11:18.393Z,94120.00
2023-05-14T09:12:18.377Z,94122.00
2023-05-14T09:13:18.368Z,94120.00
2023-05-14T09:14:18.370Z,94120.00
2023-05-14T09:15:18.372Z,94118.00
2023-05-14T09:16:18.410Z,94118.00
2023-05-14T09:17:18.358Z,94120.00
2023-05-14T09:18:18.354Z,94120.00
2023-05-14T09:19:18.396Z,94120.00
2023-05-14T09:20:18.329Z,94120.00
2023-05-14T09:21:18.307Z,94120.00
2023-05-14T09:22:18.299Z,94118.00
2023-05-14T09:23:18.298Z,94118.00
2023-05-14T09:24:18.300Z,94120.00
2023-05-14T09:25:18.274Z,94120.00
2023-05-14T09:26:18.269Z,94118.00
2023-05-14T09:27:18.284Z,94118.00
2023-05-14T09:28:18.276Z,94111.00
2023-05-14T09:29:18.266Z,94109.00
2023-05-14T09:30:18.260Z,94109.00
2023-05-14T09:31:18.252Z,94105.00
2023-05-14T09:32:18.238Z,94103.00
2023-05-14T09:33:18.239Z,94103.00
2023-05-14T09:34:18.224Z,94103.00
2023-05-14T09:35:18.223Z,94097.00
2023-05-14T09:36:18.211Z,94099.00
2023-05-14T09:37:18.206Z,94099.00
2023-05-14T09:38:18.197Z,94093.00
2023-05-14T09:39:18.187Z,94093.00
2023-05-14T09:40:18.192Z,94095.00
2023-05-14T09:41:18.154Z,94095.00
2023-05-14T09:42:18.222Z,94091.00
2023-05-14T09:43:18.277Z,94091.00
2023-05-14T09:44:18.339Z,94091.00
2023-05-14T09:45:18.422Z,94089.00
2023-05-14T09:46:18.488Z,94087.00
2023-05-14T09:47:18.566Z,94079.00
2023-05-14T09:48:18.623Z,94077.00
2023-05-14T09:49:18.617Z,94075.00
2023-05-14T09:50:18.710Z,94077.00
2023-05-14T09:51:18.781Z,94075.00
2023-05-14T09:52:18.822Z,94072.00
2023-05-14T09:53:18.884Z,94068.00
2023-05-14T09:54:18.921Z,94070.00
2023-05-14T09:55:18.988Z,94066.00
2023-05-14T09:56:19.076Z,94068.00
2023-05-14T09:57:19.139Z,94066.00
2023-05-14T09:58:19.181Z,94066.00
2023-05-14T09:59:19.259Z,94062.00
2023-05-14T10:00:19.313Z,94060.00
2023-05-14T10:01:19.388Z,94060.00
2023-05-14T10:02:19.404Z,94058.00
2023-05-14T10:03:20.166Z,94056.00
2023-05-14T10:04:19.592Z,94054.00
2023-05-14T10:05:19.574Z,94054.00
2023-05-14T10:06:19.648Z,94054.00
2023-05-14T10:07:19.700Z,94052.00
2023-05-14T10:08:19.757Z,94050.00
2023-05-14T10:09:19.838Z,94050.00
2023-05-14T10:10:19.940Z,94048.00
2023-05-14T10:11:19.919Z,94048.00
2023-05-14T10:12:20.000Z,94046.00
2023-05-14T10:13:20.049Z,94048.00
2023-05-14T10:14:20.100Z,94044.00
2023-05-14T10:15:20.151Z,94046.00
2023-05-14T10:16:20.294Z,94044.00
2023-05-14T10:17:20.278Z,94044.00
2023-05-14T10:18:20.313Z,94042.00
2023-05-14T10:19:20.513Z,94042.00
2023-05-14T10:20:20.444Z,94038.00
2023-05-14T10:21:20.478Z,94038.00
2023-05-14T10:22:20.538Z,94040.00
2023-05-14T10:23:20.598Z,94038.00
2023-05-14T10:24:20.642Z,94034.00
2023-05-14T10:25:20.703Z,94030.00
2023-05-14T10:26:23.106Z,94032.00
2023-05-14T10:27:20.755Z,94032.00
2023-05-14T10:28:20.756Z,94030.00
2023-05-14T10:29:20.759Z,94026.00
2023-05-14T10:30:20.729Z,94028.00
2023-05-14T10:31:20.742Z,94026.00
2023-05-14T10:32:20.758Z,94025.00
2023-05-14T10:33:20.721Z,94026.00
2023-05-14T10:34:20.699Z,94028.00
2023-05-14T10:35:20.906Z,94025.00
2023-05-14T10:36:20.710Z,94026.00
2023-05-14T10:37:20.708Z,94025.00
2023-05-14T10:38:20.686Z,94025.00
2023-05-14T10:39:20.784Z,94023.00
2023-05-14T10:40:20.671Z,94019.00
2023-05-14T10:41:20.652Z,94019.00
2023-05-14T10:42:20.653Z,94015.00
2023-05-14T10:43:20.648Z,94015.00
2023-05-14T10:44:20.644Z,94015.00
2023-05-14T10:45:20.635Z,94009.00
2023-05-14T10:46:20.674Z,94017.00
2023-05-14T10:47:20.619Z,94013.00
2023-05-14T10:48:20.643Z,94013.00
2023-05-14T10:49:28.829Z,94013.00
2023-05-14T10:50:21.732Z,94013.00
2023-05-14T10:51:20.675Z,94011.00
2023-05-14T10:52:20.618Z,94017.00
2023-05-14T10:53:20.569Z,94013.00
2023-05-14T10:54:20.564Z,94013.00
2023-05-14T10:55:20.575Z,94009.00
2023-05-14T10:56:20.553Z,94009.00
2023-05-14T10:57:20.584Z,94007.00
2023-05-14T10:58:20.588Z,94007.00
2023-05-14T10:59:20.649Z,94005.00
2023-05-14T11:00:20.714Z,93997.00
2023-05-14T11:01:20.813Z,93993.00
2023-05-14T11:02:20.857Z,93993.00
2023-05-14T11:03:20.935Z,93995.00
2023-05-14T11:04:20.941Z,93993.00
2023-05-14T11:05:20.986Z,93993.00
2023-05-14T11:06:21.043Z,93987.00
2023-05-14T11:07:21.082Z,93989.00
2023-05-14T11:08:22.502Z,93987.00
2023-05-14T11:09:21.104Z,93989.00
2023-05-14T11:10:21.186Z,93987.00
2023-05-14T11:11:21.104Z,93987.00
2023-05-14T11:12:21.085Z,93991.00
2023-05-14T11:13:21.122Z,93989.00
2023-05-14T11:14:21.063Z,93991.00
2023-05-14T11:15:21.071Z,93991.00
2023-05-14T11:16:23.550Z,93991.00
2023-05-14T11:17:21.080Z,93991.00
2023-05-14T11:18:21.039Z,93991.00
2023-05-14T11:19:21.052Z,93989.00
2023-05-14T11:20:21.066Z,93989.00
2023-05-14T11:21:21.039Z,93989.00
2023-05-14T11:22:21.014Z,93989.00
2023-05-14T11:23:21.064Z,93991.00
2023-05-14T11:24:21.010Z,93987.00
2023-05-14T11:25:20.994Z,93987.00
2023-05-14T11:26:21.904Z,93987.00
2023-05-14T11:27:20.973Z,93983.00
2023-05-14T11:28:20.993Z,93985.00
2023-05-14T11:29:20.959Z,93985.00
2023-05-14T11:30:21.040Z,93983.00
2023-05-14T11:31:20.993Z,93981.00
2023-05-14T11:32:21.141Z,93983.00
2023-05-14T11:33:20.947Z,93981.00
2023-05-14T11:34:20.946Z,93983.00
2023-05-14T11:35:20.943Z,93979.00
2023-05-14T11:36:20.926Z,93979.00
2023-05-14T11:37:20.910Z,93981.00
2023-05-14T11:38:20.903Z,93981.00
2023-05-14T11:39:20.889Z,93981.00
2023-05-14T11:40:20.891Z,93981.00
2023-05-14T11:41:20.969Z,93985.00
2023-05-14T11:42:20.881Z,93985.00
2023-05-14T11:43:20.882Z,93985.00
2023-05-14T11:44:20.869Z,93983.00
2023-05-14T11:45:20.863Z,93983.00